Time;durP1;ratioP1;P1;durP2;ratioP2;P2;SDS_P1;SDS_P2;PMS_P1;PMS_P2;Temp;Humidity;BMP_temperature;BMP_pressure;BME280_temperature;BME280_humidity;BME280_pressure;Samples;Min_cycle;Max_cycle;Signal;HPM_P1;HPM_P2
2021/05/08 00:01:59;;;;;;;7.73;6.67;;;;;;;8.12;70.62;96645.00;5059488;28;20591;-74
2021/05/08 00:04:25;;;;;;;6.37;5.77;;;;;;;8.13;69.64;96636.94;5065235;28;20542;-75
2021/05/08 00:06:51;;;;;;;6.80;6.10;;;;;;;7.90;71.41;96651.50;5079005;28;20415;-75
2021/05/08 00:09:16;;;;;;;6.10;5.50;;;;;;;7.94;71.03;96650.88;5078452;28;20701;-71
2021/05/08 00:11:41;;;;;;;6.50;5.90;;;;;;;8.15;70.22;96648.03;5062940;28;20541;-75
2021/05/08 00:14:08;;;;;;;6.50;5.90;;;;;;;8.25;68.98;96645.84;5072104;28;20182;-71
2021/05/08 00:16:34;;;;;;;7.50;6.83;;;;;;;8.13;68.91;96655.28;5079523;28;20175;-71
2021/05/08 00:18:59;;;;;;;6.13;5.43;;;;;;;8.19;68.09;96651.03;5079132;28;20435;-71
2021/05/08 00:21:25;;;;;;;6.20;5.70;;;;;;;8.21;67.81;96641.19;5079545;28;20403;-71
2021/05/08 00:23:50;;;;;;;6.67;6.10;;;;;;;8.23;67.17;96647.00;5079241;28;20220;-71
2021/05/08 00:26:16;;;;;;;6.20;5.70;;;;;;;8.09;68.19;96648.03;5075546;28;20170;-74
2021/05/08 00:28:41;;;;;;;6.67;5.80;;;;;;;8.03;68.01;96648.84;5064110;28;20211;-75
2021/05/08 00:31:06;;;;;;;8.40;5.93;;;;;;;8.06;68.50;96646.63;5056179;28;20174;-71
2021/05/08 00:33:32;;;;;;;6.50;5.90;;;;;;;8.13;68.61;96641.41;5057174;28;20181;-71
2021/05/08 00:35:57;;;;;;;7.37;6.70;;;;;;;8.11;67.83;96639.00;5056258;28;20171;-71
2021/05/08 00:38:23;;;;;;;7.07;6.47;;;;;;;8.06;68.38;96648.47;5055459;28;20205;-71
2021/05/08 00:40:48;;;;;;;6.50;5.77;;;;;;;8.01;68.22;96645.63;5056045;28;20191;-74
2021/05/08 00:43:17;;;;;;;6.43;5.83;;;;;;;7.99;68.19;96645.06;5055805;28;20575;-71
2021/05/08 00:45:43;;;;;;;6.47;5.90;;;;;;;7.96;68.76;96638.41;5056822;28;20182;-72
2021/05/08 00:48:13;;;;;;;6.77;5.40;;;;;;;8.05;68.63;96637.19;5055391;28;20548;-74
2021/05/08 00:50:39;;;;;;;7.10;5.50;;;;;;;7.77;70.30;96644.41;5055627;28;20205;-74
2021/05/08 00:53:07;;;;;;;6.27;5.70;;;;;;;7.81;69.97;96637.78;5055783;28;20470;-74
2021/05/08 00:55:33;;;;;;;5.77;5.27;;;;;;;7.97;69.66;96640.00;5055832;28;20436;-70
2021/05/08 00:58:00;;;;;;;7.10;6.50;;;;;;;8.04;68.24;96638.16;5055237;28;20477;-75
2021/05/08 01:00:26;;;;;;;6.53;5.93;;;;;;;8.06;68.42;96641.41;5058600;28;20516;-71
2021/05/08 01:02:51;;;;;;;7.33;6.63;;;;;;;8.02;68.38;96634.97;5075612;28;20407;-71
2021/05/08 01:05:18;;;;;;;6.50;5.90;;;;;;;8.05;68.24;96645.03;5075621;28;20402;-71
2021/05/08 01:07:44;;;;;;;6.90;6.13;;;;;;;7.97;68.85;96647.84;5075052;28;20222;-75
2021/05/08 01:10:12;;;;;;;6.27;5.70;;;;;;;7.80;70.76;96638.00;5072757;28;20450;-71
2021/05/08 01:12:39;;;;;;;7.57;6.87;;;;;;;7.70;70.36;96646.22;5069926;28;20511;-75
2021/05/08 01:15:07;;;;;;;6.50;5.90;;;;;;;7.81;70.71;96637.78;5072744;28;20426;-72
2021/05/08 01:17:33;;;;;;;7.43;6.73;;;;;;;7.92;69.68;96634.56;5074884;28;20468;-70
2021/05/08 01:19:58;;;;;;;7.13;6.00;;;;;;;7.93;68.64;96648.47;5074293;28;20452;-74
2021/05/08 01:22:24;;;;;;;6.43;5.90;;;;;;;7.92;68.35;96641.59;5075251;28;20201;-70
2021/05/08 01:24:49;;;;;;;7.77;6.50;;;;;;;7.99;67.72;96642.44;5072967;28;20651;-70
2021/05/08 01:27:15;;;;;;;7.07;6.10;;;;;;;8.01;67.74;96633.34;5074977;28;20590;-70
2021/05/08 01:29:40;;;;;;;6.60;6.10;;;;;;;8.01;67.77;96630.75;5072890;28;20233;-70
2021/05/08 01:32:06;;;;;;;7.23;6.50;;;;;;;7.99;68.11;96645.06;5057553;28;20185;-74
2021/05/08 01:34:31;;;;;;;6.30;5.80;;;;;;;8.02;68.02;96628.94;5055220;28;20178;-70
2021/05/08 01:36:57;;;;;;;6.57;5.97;;;;;;;8.01;67.35;96630.75;5054381;28;20653;-70
2021/05/08 01:39:22;;;;;;;5.90;5.40;;;;;;;7.89;68.91;96628.94;5054650;28;20213;-74
2021/05/08 01:41:48;;;;;;;7.07;6.00;;;;;;;7.85;68.66;96625.09;5059956;28;20188;-70
2021/05/08 01:44:13;;;;;;;6.23;5.70;;;;;;;7.80;69.42;96624.91;5075056;28;20262;-74
2021/05/08 01:46:39;;;;;;;7.30;5.37;;;;;;;7.92;68.77;96620.69;5074708;28;20173;-70
2021/05/08 01:49:04;;;;;;;5.70;5.20;;;;;;;7.86;68.17;96618.88;5074300;28;20197;-70
2021/05/08 01:51:30;;;;;;;6.13;5.53;;;;;;;7.83;69.05;96612.25;5074331;28;20195;-70
2021/05/08 01:53:55;;;;;;;6.60;6.00;;;;;;;7.76;69.38;96623.69;5074734;28;20188;-75
2021/05/08 01:56:21;;;;;;;5.70;5.20;;;;;;;7.76;69.65;96613.25;5067083;28;20179;-74
2021/05/08 01:58:46;;;;;;;5.47;5.03;;;;;;;7.63;69.78;96606.19;5053823;28;20191;-74
2021/05/08 02:01:12;;;;;;;6.30;5.80;;;;;;;7.68;69.38;96603.00;5054368;28;20235;-75
2021/05/08 02:03:37;;;;;;;6.43;5.83;;;;;;;7.79;68.69;96608.41;5055808;28;20199;-74
2021/05/08 02:06:03;;;;;;;6.00;5.57;;;;;;;7.73;68.82;96603.19;5073293;28;20548;-74
2021/05/08 02:08:28;;;;;;;5.63;5.03;;;;;;;7.71;68.22;96598.16;5073707;28;20582;-75
2021/05/08 02:10:54;;;;;;;5.97;4.77;;;;;;;7.61;68.08;96599.59;5072143;28;20185;-70
2021/05/08 02:13:19;;;;;;;6.73;6.13;;;;;;;7.51;69.25;96602.59;5073884;28;20542;-70
2021/05/08 02:15:45;;;;;;;6.90;6.00;;;;;;;7.58;68.92;96599.97;5074247;28;20311;-70
2021/05/08 02:18:11;;;;;;;6.03;5.43;;;;;;;7.47;68.45;96603.16;5073710;28;20259;-70
2021/05/08 02:20:39;;;;;;;7.83;5.80;;;;;;;7.40;69.41;96597.94;5067716;28;20530;-74
2021/05/08 02:23:06;;;;;;;6.57;5.97;;;;;;;7.46;68.44;96601.56;5062864;28;20544;-74
2021/05/08 02:25:32;;;;;;;6.33;5.73;;;;;;;7.41;69.34;96601.38;5058071;28;20459;-74
2021/05/08 02:27:58;;;;;;;6.27;5.67;;;;;;;7.36;69.39;96604.56;5053550;28;20872;-74
2021/05/08 02:30:29;;;;;;;6.00;5.50;;;;;;;7.40;69.54;96600.56;5053723;28;20190;-70
2021/05/08 02:32:56;;;;;;;5.37;4.67;;;;;;;7.31;69.40;96601.75;5053965;28;20882;-74
2021/05/08 02:35:22;;;;;;;6.43;5.83;;;;;;;7.34;69.85;96596.13;5053939;28;20400;-70
2021/05/08 02:37:49;;;;;;;7.70;6.13;;;;;;;7.33;68.79;96594.53;5065721;28;20419;-74
2021/05/08 02:40:20;;;;;;;5.70;5.20;;;;;;;7.05;71.65;96596.47;5073786;28;20848;-74
2021/05/08 02:42:46;;;;;;;6.17;5.67;;;;;;;7.03;71.55;96595.88;5073796;28;20399;-70
2021/05/08 02:45:13;;;;;;;8.63;5.60;;;;;;;6.94;70.65;96599.66;5073260;28;20425;-75
2021/05/08 02:47:40;;;;;;;6.43;5.83;;;;;;;7.00;71.69;96597.09;5072242;28;20456;-74
2021/05/08 02:50:07;;;;;;;8.83;6.07;;;;;;;7.12;71.11;96592.09;5073042;28;20603;-70
2021/05/08 02:52:33;;;;;;;7.73;6.07;;;;;;;7.25;70.12;96592.91;5067221;28;20420;-70
2021/05/08 02:54:58;;;;;;;5.70;5.20;;;;;;;7.35;69.59;96589.91;5053450;28;20749;-69
2021/05/08 02:57:24;;;;;;;6.00;5.40;;;;;;;7.28;70.06;96589.88;5053176;28;20200;-70
2021/05/08 02:59:49;;;;;;;6.17;5.57;;;;;;;7.34;70.17;96590.91;5053628;28;20283;-70
2021/05/08 03:02:14;;;;;;;7.70;5.37;;;;;;;7.42;68.72;96601.16;5053704;28;20226;-74
2021/05/08 03:04:40;;;;;;;5.70;5.20;;;;;;;7.43;69.53;96596.75;5053312;28;20171;-74
2021/05/08 03:07:05;;;;;;;6.00;5.40;;;;;;;7.50;68.60;96589.72;5054032;28;20180;-74
2021/05/08 03:09:32;;;;;;;6.63;5.50;;;;;;;7.38;68.86;96593.91;5053124;28;20213;-74
2021/05/08 03:12:00;;;;;;;6.40;5.17;;;;;;;7.42;68.63;96589.91;5055458;28;20713;-74
2021/05/08 03:14:25;;;;;;;5.60;5.10;;;;;;;7.46;67.82;96578.88;5053359;28;20464;-74
2021/05/08 03:16:51;;;;;;;7.77;5.83;;;;;;;7.44;68.00;96580.06;5053039;28;20426;-71
2021/05/08 03:19:17;;;;;;;7.17;5.77;;;;;;;7.40;68.13;96587.50;5053036;28;20185;-70
2021/05/08 03:21:43;;;;;;;5.80;5.30;;;;;;;7.45;67.77;96586.88;5067106;28;20186;-74
2021/05/08 03:24:09;;;;;;;6.13;5.53;;;;;;;7.40;68.37;96584.88;5073593;28;20168;-74
2021/05/08 03:26:35;;;;;;;6.10;5.60;;;;;;;7.37;68.03;96582.69;5073281;28;20500;-74
2021/05/08 03:29:00;;;;;;;6.47;5.80;;;;;;;7.33;67.93;96576.25;5072824;28;20460;-70
2021/05/08 03:31:26;;;;;;;6.53;5.70;;;;;;;7.26;67.61;96562.38;5064236;28;20906;-70
2021/05/08 03:33:52;;;;;;;6.00;5.37;;;;;;;7.15;69.29;96581.25;5065887;28;20186;-70
2021/05/08 03:36:17;;;;;;;6.30;5.80;;;;;;;7.10;69.60;96586.25;5053287;28;20508;-70
2021/05/08 03:38:42;;;;;;;6.10;5.17;;;;;;;7.10;69.13;96581.81;5052662;28;20215;-74
2021/05/08 03:41:08;;;;;;;6.03;4.90;;;;;;;6.98;68.27;96572.16;5053317;28;20267;-70
2021/05/08 03:43:34;;;;;;;5.13;4.73;;;;;;;7.11;68.42;96573.00;5053045;28;20264;-74
2021/05/08 03:45:59;;;;;;;5.40;4.90;;;;;;;7.20;69.38;96573.59;5053141;28;20634;-74
2021/05/08 03:48:25;;;;;;;5.00;4.50;;;;;;;7.20;69.44;96577.03;5054129;28;20254;-74
2021/05/08 03:50:52;;;;;;;4.47;4.03;;;;;;;7.23;69.07;96581.84;5072655;28;20188;-74
2021/05/08 03:53:19;;;;;;;5.00;4.50;;;;;;;7.30;68.84;96580.03;5073024;28;20169;-70
2021/05/08 03:55:45;;;;;;;5.37;4.40;;;;;;;7.33;69.34;96573.63;5072177;28;20548;-70
2021/05/08 03:58:10;;;;;;;5.30;4.87;;;;;;;7.24;69.62;96582.66;5072556;28;20492;-73
2021/05/08 04:00:35;;;;;;;5.60;5.10;;;;;;;7.17;69.47;96580.03;5073797;28;20229;-74
2021/05/08 04:03:01;;;;;;;5.43;4.93;;;;;;;7.19;69.90;96577.22;5074242;28;20188;-70
2021/05/08 04:05:26;;;;;;;5.80;5.40;;;;;;;7.13;70.35;96576.22;5076609;28;20196;-70
2021/05/08 04:07:52;;;;;;;5.40;4.90;;;;;;;7.24;69.84;96583.47;5060933;28;20542;-74
2021/05/08 04:10:18;;;;;;;7.43;5.40;;;;;;;7.20;69.85;96582.25;5056687;28;20243;-69
2021/05/08 04:12:44;;;;;;;5.27;4.77;;;;;;;7.23;70.40;96579.22;5056672;28;20173;-74
2021/05/08 04:15:10;;;;;;;5.10;4.60;;;;;;;7.31;70.37;96570.41;5055267;28;20742;-74
2021/05/08 04:17:36;;;;;;;5.07;4.57;;;;;;;7.32;69.33;96564.16;5056204;28;20181;-70
2021/05/08 04:20:02;;;;;;;5.47;5.07;;;;;;;7.36;69.65;96560.16;5056238;28;20437;-69
2021/05/08 04:22:27;;;;;;;5.10;4.60;;;;;;;7.47;70.16;96566.56;5056374;28;20407;-74
2021/05/08 04:24:52;;;;;;;6.27;5.03;;;;;;;7.48;68.50;96565.59;5060656;28;20181;-75
2021/05/08 04:27:18;;;;;;;4.47;4.17;;;;;;;7.44;68.96;96565.19;5065119;28;20187;-74
2021/05/08 04:29:43;;;;;;;4.43;4.13;;;;;;;7.43;68.95;96560.94;5056129;28;20203;-70
2021/05/08 04:32:08;;;;;;;6.70;4.47;;;;;;;7.16;69.92;96562.75;5056053;28;20543;-70
2021/05/08 04:34:34;;;;;;;4.53;4.00;;;;;;;7.37;69.29;96559.16;5057265;28;20179;-69
2021/05/08 04:36:59;;;;;;;4.67;4.27;;;;;;;7.49;68.33;96564.56;5055595;28;20649;-75
2021/05/08 04:39:25;;;;;;;5.23;3.70;;;;;;;7.54;68.66;96556.91;5056208;28;20245;-74
2021/05/08 04:41:51;;;;;;;7.27;3.80;;;;;;;7.50;67.65;96564.38;5070395;28;20176;-69
2021/05/08 04:44:16;;;;;;;4.30;3.90;;;;;;;7.59;68.27;96554.53;5066063;28;20428;-70
2021/05/08 04:46:42;;;;;;;4.30;3.70;;;;;;;7.54;67.40;96549.06;5055781;28;20427;-70
2021/05/08 04:49:07;;;;;;;6.00;4.97;;;;;;;7.45;67.19;96550.28;5055305;28;20209;-75
2021/05/08 04:51:33;;;;;;;5.60;4.70;;;;;;;7.40;66.70;96555.31;5055687;28;20180;-75
2021/05/08 04:53:58;;;;;;;6.60;4.17;;;;;;;7.29;67.09;96560.16;5062343;28;20179;-75
2021/05/08 04:56:23;;;;;;;4.83;4.00;;;;;;;7.32;67.85;96562.34;5075868;28;20658;-70
2021/05/08 04:58:49;;;;;;;4.03;3.73;;;;;;;7.43;68.01;96563.56;5074276;28;20257;-71
2021/05/08 05:01:15;;;;;;;4.67;3.50;;;;;;;7.71;68.09;96558.94;5073221;28;20260;-70
2021/05/08 05:03:40;;;;;;;3.80;3.50;;;;;;;7.90;68.80;96559.94;5075526;28;20204;-70
2021/05/08 05:06:06;;;;;;;4.37;3.97;;;;;;;8.05;68.82;96565.72;5075700;28;20168;-73
2021/05/08 05:08:32;;;;;;;5.83;5.23;;;;;;;8.17;68.58;96561.50;5075024;28;20201;-69
2021/05/08 05:10:57;;;;;;;10.13;4.50;;;;;;;8.27;68.33;96556.66;5075058;28;20216;-70
2021/05/08 05:13:24;;;;;;;4.90;3.97;;;;;;;8.22;66.73;96561.66;5074310;28;20203;-70
2021/05/08 05:15:50;;;;;;;5.10;4.23;;;;;;;8.00;65.61;96561.13;5073305;28;20198;-70
2021/05/08 05:18:15;;;;;;;6.17;4.10;;;;;;;7.99;65.35;96563.94;5074919;28;20407;-74
2021/05/08 05:20:41;;;;;;;4.23;3.83;;;;;;;7.78;66.87;96572.81;5075129;28;20425;-70
2021/05/08 05:23:07;;;;;;;4.40;4.00;;;;;;;7.99;65.75;96571.78;5075188;28;20244;-73
2021/05/08 05:25:33;;;;;;;4.90;3.80;;;;;;;8.14;67.15;96570.53;5075241;28;20205;-70
2021/05/08 05:27:58;;;;;;;4.63;4.17;;;;;;;8.25;66.30;96569.13;5073899;28;20616;-70
2021/05/08 05:30:23;;;;;;;5.17;4.13;;;;;;;8.16;66.26;96572.94;5074922;28;20196;-74
2021/05/08 05:32:49;;;;;;;4.50;4.10;;;;;;;8.30;65.96;96575.34;5074989;28;20247;-74
2021/05/08 05:35:15;;;;;;;5.27;4.73;;;;;;;8.22;66.81;96580.00;5069692;28;20223;-74
2021/05/08 05:37:40;;;;;;;4.07;3.77;;;;;;;8.32;66.75;96581.19;5054697;28;20236;-70
2021/05/08 05:40:07;;;;;;;4.80;4.40;;;;;;;8.46;67.14;96565.44;5054739;28;20697;-75
2021/05/08 05:42:32;;;;;;;6.77;4.40;;;;;;;8.56;66.32;96574.47;5058640;28;20207;-70
2021/05/08 05:44:58;;;;;;;4.17;3.77;;;;;;;8.63;66.26;96575.25;5074843;28;20520;-74
2021/05/08 05:47:26;;;;;;;4.37;3.97;;;;;;;8.64;65.75;96570.81;5074280;28;20261;-74
2021/05/08 05:49:54;;;;;;;3.57;3.27;;;;;;;8.69;65.06;96569.19;5074384;28;20207;-70
2021/05/08 05:52:20;;;;;;;3.70;3.40;;;;;;;8.65;63.26;96567.19;5074675;28;20492;-70
2021/05/08 05:54:48;;;;;;;3.87;3.57;;;;;;;8.75;64.63;96567.56;5058902;28;20423;-75
2021/05/08 05:57:14;;;;;;;4.03;3.70;;;;;;;8.74;63.30;96569.34;5058824;28;20752;-71
2021/05/08 05:59:40;;;;;;;3.67;3.37;;;;;;;8.99;63.40;96559.75;5074280;28;20421;-74
2021/05/08 06:02:05;;;;;;;4.07;3.77;;;;;;;8.85;62.34;96560.84;5074397;28;20412;-75
2021/05/08 06:04:32;;;;;;;4.83;4.20;;;;;;;8.97;61.77;96556.53;5074365;28;20621;-75
2021/05/08 06:06:58;;;;;;;3.63;3.33;;;;;;;8.65;62.08;96554.06;5072075;28;20199;-70
2021/05/08 06:09:26;;;;;;;3.97;3.53;;;;;;;8.83;61.07;96556.81;5073979;28;20973;-75
2021/05/08 06:11:52;;;;;;;6.10;3.47;;;;;;;8.78;61.98;96561.88;5070582;28;20440;-75
2021/05/08 06:14:18;;;;;;;4.90;3.43;;;;;;;8.89;62.42;96561.22;5057525;28;20433;-75
2021/05/08 06:16:44;;;;;;;3.90;3.60;;;;;;;8.91;61.39;96561.81;5074115;28;20407;-75
2021/05/08 06:19:09;;;;;;;2.80;2.60;;;;;;;9.01;60.35;96572.63;5073765;28;20214;-75
2021/05/08 06:21:35;;;;;;;3.37;3.07;;;;;;;9.27;59.59;96575.91;5071662;28;20173;-74
2021/05/08 06:24:00;;;;;;;5.10;3.00;;;;;;;9.32;59.25;96573.47;5073250;28;20175;-75
2021/05/08 06:26:26;;;;;;;3.07;2.80;;;;;;;9.14;59.44;96567.31;5072702;28;20786;-74
2021/05/08 06:28:51;;;;;;;3.40;2.80;;;;;;;9.00;59.75;96571.84;5053205;28;20271;-75
2021/05/08 06:31:16;;;;;;;3.50;3.13;;;;;;;8.98;59.81;96563.41;5053937;28;20181;-70
2021/05/08 06:33:42;;;;;;;4.63;3.00;;;;;;;9.26;58.99;96570.88;5053795;28;20183;-70
2021/05/08 06:36:07;;;;;;;3.47;3.27;;;;;;;9.60;58.93;96575.66;5053866;28;20178;-75
2021/05/08 06:38:32;;;;;;;3.47;3.17;;;;;;;9.61;58.03;96568.59;5053384;28;20170;-70
2021/05/08 06:40:58;;;;;;;5.47;3.20;;;;;;;9.54;57.70;96575.72;5053865;28;20175;-70
2021/05/08 06:43:23;;;;;;;3.67;3.37;;;;;;;9.69;58.10;96574.41;5063509;28;20172;-71
2021/05/08 06:45:48;;;;;;;4.90;2.67;;;;;;;9.72;58.24;96575.78;5073664;28;20259;-70
2021/05/08 06:48:15;;;;;;;3.97;3.23;;;;;;;9.90;57.78;96578.44;5073235;28;20647;-75
2021/05/08 06:50:45;;;;;;;3.53;3.23;;;;;;;10.10;59.54;96564.16;5073376;28;20254;-75
2021/05/08 06:53:11;;;;;;;3.53;3.23;;;;;;;10.14;58.00;96573.22;5071543;28;20431;-75
2021/05/08 06:55:36;;;;;;;3.23;3.03;;;;;;;10.32;56.16;96572.41;5073659;28;20407;-75
2021/05/08 06:58:01;;;;;;;3.97;3.57;;;;;;;10.38;56.43;96566.28;5072390;28;20197;-74
2021/05/08 07:00:27;;;;;;;3.73;3.43;;;;;;;10.72;56.76;96554.34;5064260;28;20203;-74
2021/05/08 07:02:52;;;;;;;4.87;3.50;;;;;;;10.89;58.10;96548.25;5053473;28;20176;-69
2021/05/08 07:05:17;;;;;;;3.43;2.80;;;;;;;11.06;57.37;96543.19;5053473;28;20179;-70
2021/05/08 07:07:43;;;;;;;5.37;3.20;;;;;;;11.16;57.31;96546.09;5066094;28;20580;-69
2021/05/08 07:10:09;;;;;;;4.63;4.07;;;;;;;11.16;57.14;96546.09;5073223;28;20749;-70
2021/05/08 07:12:34;;;;;;;3.80;3.50;;;;;;;11.29;57.89;96538.78;5068283;28;20175;-74
2021/05/08 07:15:00;;;;;;;3.83;3.00;;;;;;;11.39;59.08;96540.88;5059082;28;20181;-74
2021/05/08 07:17:25;;;;;;;4.27;3.30;;;;;;;11.28;54.18;96537.19;5071200;28;20708;-70
2021/05/08 07:19:51;;;;;;;3.13;2.53;;;;;;;11.47;55.29;96537.91;5053496;28;20289;-70
2021/05/08 07:22:16;;;;;;;4.83;3.00;;;;;;;11.41;53.48;96534.34;5053421;28;20217;-74
2021/05/08 07:24:42;;;;;;;2.80;2.60;;;;;;;11.53;52.63;96539.63;5053117;28;20182;-70
2021/05/08 07:27:07;;;;;;;3.73;3.43;;;;;;;11.74;56.14;96540.97;5052820;28;20175;-74
2021/05/08 07:29:33;;;;;;;3.27;3.03;;;;;;;12.07;56.58;96541.97;5053149;28;20278;-70
2021/05/08 07:31:59;;;;;;;3.70;3.37;;;;;;;12.28;55.43;96538.72;5055260;28;20183;-70
2021/05/08 07:34:25;;;;;;;2.60;2.50;;;;;;;12.48;54.49;96537.56;5053784;28;20172;-74
2021/05/08 07:36:50;;;;;;;3.80;3.00;;;;;;;12.38;53.02;96540.78;5056876;28;20416;-75
2021/05/08 07:39:15;;;;;;;2.63;2.43;;;;;;;12.01;49.65;96542.09;5057073;28;20194;-69
2021/05/08 07:41:41;;;;;;;2.20;2.10;;;;;;;11.86;51.74;96542.56;5057207;28;20179;-75
2021/05/08 07:44:07;;;;;;;2.87;2.67;;;;;;;12.21;50.82;96532.78;5057060;28;20164;-70
2021/05/08 07:46:33;;;;;;;3.40;2.57;;;;;;;12.37;48.90;96537.34;5058135;28;20255;-69
2021/05/08 07:48:59;;;;;;;3.17;2.27;;;;;;;12.46;51.38;96535.16;5056410;28;20552;-69
2021/05/08 07:51:24;;;;;;;3.93;2.43;;;;;;;12.21;49.83;96534.66;5056992;28;20190;-69
2021/05/08 07:53:50;;;;;;;2.57;2.37;;;;;;;11.81;49.21;96537.16;5056850;28;20660;-74
2021/05/08 07:56:15;;;;;;;2.60;2.07;;;;;;;12.18;50.13;96533.25;5065146;28;20278;-72
2021/05/08 07:58:41;;;;;;;2.37;2.17;;;;;;;12.48;50.81;96537.56;5073725;28;20220;-67
2021/05/08 08:01:06;;;;;;;2.20;2.00;;;;;;;12.81;51.13;96538.50;5056870;28;20537;-69
2021/05/08 08:03:32;;;;;;;3.20;2.50;;;;;;;12.65;48.74;96536.59;5056610;28;20179;-72
2021/05/08 08:05:57;;;;;;;2.60;2.40;;;;;;;12.48;50.00;96543.66;5056746;28;20183;-69
2021/05/08 08:08:23;;;;;;;2.53;2.33;;;;;;;12.03;50.71;96535.56;5056080;28;20277;-67
2021/05/08 08:10:48;;;;;;;4.63;2.40;;;;;;;12.26;50.89;96537.38;5055432;28;20218;-68
2021/05/08 08:13:14;;;;;;;2.50;2.30;;;;;;;12.27;50.24;96539.78;5068634;28;20189;-71
2021/05/08 08:15:39;;;;;;;2.33;2.23;;;;;;;12.58;49.89;96540.38;5059927;28;20183;-66
2021/05/08 08:18:09;;;;;;;2.40;2.30;;;;;;;12.16;49.41;96540.59;5061837;28;20182;-67
2021/05/08 08:20:34;;;;;;;3.73;2.27;;;;;;;12.34;48.46;96544.91;5076326;28;20265;-72
2021/05/08 08:23:00;;;;;;;2.63;2.43;;;;;;;12.40;48.00;96542.16;5076424;28;20967;-72
2021/05/08 08:25:25;;;;;;;6.03;2.60;;;;;;;12.48;48.37;96545.47;5076656;28;20167;-67
2021/05/08 08:27:52;;;;;;;2.43;2.23;;;;;;;12.66;48.49;96543.50;5075765;28;20174;-73
2021/05/08 08:30:17;;;;;;;3.10;2.20;;;;;;;12.86;48.88;96540.44;5070353;28;20252;-67
2021/05/08 08:32:43;;;;;;;4.43;4.10;;;;;;;12.90;48.49;96541.56;5065299;28;20810;-70
2021/05/08 08:35:09;;;;;;;2.80;2.00;;;;;;;13.02;46.79;96543.16;5075967;28;20171;-66
2021/05/08 08:37:35;;;;;;;2.07;1.97;;;;;;;13.11;46.49;96538.28;5075029;28;20258;-66
2021/05/08 08:40:00;;;;;;;3.27;2.30;;;;;;;13.21;46.42;96530.53;5056350;28;20867;-73
2021/05/08 08:42:27;;;;;;;2.20;1.63;;;;;;;13.27;47.23;96532.25;5056190;28;20191;-68
2021/05/08 08:44:52;;;;;;;2.30;2.10;;;;;;;13.12;46.69;96527.50;5075944;28;20266;-69
2021/05/08 08:47:30;;;;;;;2.30;1.83;;;;;;;13.20;44.74;96535.03;5071981;28;20504;-67
2021/05/08 08:50:08;;;;;;;1.77;1.63;;;;;;;12.72;44.79;96524.06;5056481;28;20207;-67
2021/05/08 08:52:34;;;;;;;2.53;1.70;;;;;;;12.66;43.78;96529.50;5055770;28;20406;-69
2021/05/08 08:55:00;;;;;;;2.07;1.87;;;;;;;13.12;46.13;96524.84;5055955;28;20425;-71
2021/05/08 08:57:41;;;;;;;2.37;2.07;;;;;;;13.46;44.31;96525.69;5055272;28;20410;-68
2021/05/08 09:00:13;;;;;;;2.47;2.27;;;;;;;13.62;42.77;96522.28;5072203;28;20469;-70
2021/05/08 09:02:40;;;;;;;2.00;1.90;;;;;;;13.54;44.40;96517.38;5059317;28;20932;-65
2021/05/08 09:05:08;;;;;;;2.17;1.73;;;;;;;13.78;44.46;96516.19;5071387;28;20478;-66
2021/05/08 09:07:35;;;;;;;2.50;1.80;;;;;;;13.87;42.61;96516.56;5071692;28;20423;-69
2021/05/08 09:10:01;;;;;;;2.40;1.87;;;;;;;14.22;42.51;96519.72;5051710;28;20462;-68
2021/05/08 09:12:27;;;;;;;1.70;1.60;;;;;;;14.65;45.15;96501.25;5051918;28;20410;-69
2021/05/08 09:14:53;;;;;;;1.80;1.70;;;;;;;14.79;43.84;96502.47;5052904;28;20175;-71
2021/05/08 09:17:25;;;;;;;2.00;1.90;;;;;;;14.77;41.06;96495.81;5060096;28;20171;-66
2021/05/08 09:20:01;;;;;;;2.43;2.07;;;;;;;14.47;41.81;96496.28;5065212;28;20194;-68
2021/05/08 09:22:35;;;;;;;1.63;1.53;;;;;;;15.06;41.13;96491.88;5075219;28;20910;-67
2021/05/08 09:25:16;;;;;;;1.70;1.60;;;;;;;15.31;40.96;96484.16;5074009;28;20435;-71
2021/05/08 09:27:43;;;;;;;1.73;1.63;;;;;;;15.68;42.51;96484.22;5074759;28;20474;-74
2021/05/08 09:30:19;;;;;;;1.87;1.77;;;;;;;15.63;39.28;96476.25;5075042;28;20429;-67
2021/05/08 09:32:47;;;;;;;2.00;1.80;;;;;;;15.73;41.14;96473.66;5075239;28;20899;-70
2021/05/08 09:35:18;;;;;;;2.73;2.10;;;;;;;15.85;40.62;96471.63;5066154;28;20928;-66
2021/05/08 09:37:45;;;;;;;1.60;1.50;;;;;;;16.25;41.70;96459.38;5054820;28;20406;-72
2021/05/08 09:40:23;;;;;;;3.70;1.50;;;;;;;16.11;38.36;96474.16;5054951;28;20425;-71
2021/05/08 09:42:52;;;;;;;1.60;1.50;;;;;;;15.78;36.77;96473.72;5074746;28;20767;-71
2021/05/08 09:45:19;;;;;;;2.17;1.67;;;;;;;15.38;38.15;96474.97;5074751;28;20404;-67
2021/05/08 09:47:45;;;;;;;2.27;1.50;;;;;;;15.12;36.22;96469.72;5073908;28;20402;-71
2021/05/08 09:50:11;;;;;;;1.93;1.40;;;;;;;15.41;38.29;96469.22;5073747;28;21000;-71
2021/05/08 09:52:45;;;;;;;1.37;1.27;;;;;;;15.42;39.01;96470.78;5074693;28;20271;-66
2021/05/08 09:55:12;;;;;;;2.83;1.93;;;;;;;15.26;38.62;96470.88;5073704;28;20910;-66
2021/05/08 09:57:38;;;;;;;1.63;1.40;;;;;;;15.20;39.01;96466.63;5073903;28;20411;-67
2021/05/08 10:00:24;;;;;;;3.20;1.63;;;;;;;15.29;38.19;96462.47;5074474;28;20516;-68
2021/05/08 10:03:03;;;;;;;1.93;1.50;;;;;;;15.78;37.82;96453.28;5073434;28;20170;-70
2021/05/08 10:05:29;;;;;;;2.43;1.40;;;;;;;16.02;38.15;96457.16;5054842;28;20417;-69
2021/05/08 10:07:55;;;;;;;1.93;1.40;;;;;;;15.73;37.29;96455.91;5053866;28;20430;-67
2021/05/08 10:10:20;;;;;;;1.43;1.33;;;;;;;15.68;36.41;96455.88;5054217;28;20195;-69
2021/05/08 10:12:46;;;;;;;2.07;1.60;;;;;;;16.01;38.08;96444.97;5054339;28;20768;-65
2021/05/08 10:15:12;;;;;;;1.77;1.40;;;;;;;16.53;37.35;96438.81;5061804;28;20532;-74
2021/05/08 10:17:38;;;;;;;1.50;1.40;;;;;;;16.40;34.94;96443.53;5073035;28;20171;-65
2021/05/08 10:20:09;;;;;;;1.50;1.40;;;;;;;16.45;36.66;96446.19;5070624;28;20527;-73
2021/05/08 10:22:45;;;;;;;2.27;1.40;;;;;;;16.19;35.44;96443.72;5058369;28;20179;-64
2021/05/08 10:25:11;;;;;;;1.40;1.30;;;;;;;15.94;35.86;96447.03;5054261;28;20405;-72
2021/05/08 10:27:37;;;;;;;2.20;1.30;;;;;;;15.69;35.78;96440.81;5053641;28;20910;-64
2021/05/08 10:30:04;;;;;;;1.57;1.47;;;;;;;15.64;36.52;96427.50;5053699;28;20466;-70
2021/05/08 10:32:30;;;;;;;1.80;1.40;;;;;;;16.40;38.90;96422.31;5052583;28;20186;-67
2021/05/08 10:35:02;;;;;;;1.40;1.30;;;;;;;16.98;35.19;96412.38;5054081;28;20409;-67
2021/05/08 10:37:28;;;;;;;1.50;1.40;;;;;;;17.12;34.85;96406.28;5054630;28;20233;-66
2021/05/08 10:39:56;;;;;;;1.90;1.30;;;;;;;16.78;34.02;96413.16;5073803;28;20425;-70
2021/05/08 10:42:41;;;;;;;2.43;1.53;;;;;;;16.93;34.52;96409.72;5073915;28;20412;-66
2021/05/08 10:45:12;;;;;;;1.90;1.50;;;;;;;17.04;33.70;96414.00;5072000;28;20417;-67
2021/05/08 10:50:42;;;;;;;1.43;1.33;;;;;;;17.98;37.26;96400.88;5073555;28;20543;-67
2021/05/08 10:53:09;;;;;;;2.00;1.50;;;;;;;18.80;34.98;96390.41;5072877;28;20421;-67
2021/05/08 10:55:52;;;;;;;1.67;1.50;;;;;;;18.81;32.02;96385.84;5073649;28;20416;-65
2021/05/08 10:58:20;;;;;;;1.97;1.70;;;;;;;18.34;31.07;96389.84;5072762;28;20767;-64
2021/05/08 11:00:58;;;;;;;1.80;1.50;;;;;;;18.25;32.03;96390.66;5066448;28;20965;-67
2021/05/08 11:03:30;;;;;;;3.60;2.20;;;;;;;18.58;32.47;96384.69;5073516;28;20831;-67
2021/05/08 11:06:03;;;;;;;1.80;1.70;;;;;;;17.71;31.77;96395.09;5073614;28;20405;-67
2021/05/08 11:08:29;;;;;;;1.80;1.67;;;;;;;17.75;31.79;96391.66;5071893;28;20480;-68
2021/05/08 11:11:01;;;;;;;1.93;1.80;;;;;;;17.90;33.07;96380.97;5072916;28;20425;-77
2021/05/08 11:13:43;;;;;;;1.67;1.57;;;;;;;17.82;32.06;96380.72;5071869;28;20194;-71
2021/05/08 11:16:17;;;;;;;2.00;1.80;;;;;;;18.27;32.60;96375.22;5064037;28;20961;-74
2021/05/08 11:18:44;;;;;;;2.00;1.90;;;;;;;18.04;32.69;96374.00;5054336;28;20426;-67
2021/05/08 11:21:10;;;;;;;1.70;1.60;;;;;;;17.88;33.29;96377.75;5053373;28;20434;-66
2021/05/08 11:23:50;;;;;;;2.63;2.17;;;;;;;18.28;34.84;96385.59;5061493;28;20851;-72
2021/05/08 11:26:22;;;;;;;2.43;1.90;;;;;;;18.11;34.29;96377.19;5061801;28;20179;-66
2021/05/08 11:28:53;;;;;;;4.30;2.03;;;;;;;17.53;35.34;96385.03;5072688;28;20989;-66
2021/05/08 11:31:37;;;;;;;1.73;1.63;;;;;;;17.89;34.85;96378.56;5073235;28;20744;-67
2021/05/08 11:34:27;;;;;;;2.07;1.80;;;;;;;17.76;34.31;96369.31;5071594;28;20470;-72
2021/05/08 11:36:57;;;;;;;2.10;1.90;;;;;;;17.65;34.11;96366.94;5072145;28;20890;-71
2021/05/08 11:39:32;;;;;;;1.70;1.60;;;;;;;17.31;33.71;96367.50;5072887;28;20470;-67
2021/05/08 11:42:11;;;;;;;2.20;2.00;;;;;;;17.68;34.39;96363.75;5073307;28;20490;-66